sensor_id;sensor_type;location;lat;lon;timestamp;P1;durP1;ratioP1;P2;durP2;ratioP2
11823;SDS011;5969;50.780;7.726;2023-06-24T00:00:15;6.13;;;5.63;;
11823;SDS011;5969;50.780;7.726;2023-06-24T00:02:45;6.30;;;5.50;;
11823;SDS011;5969;50.780;7.726;2023-06-24T00:05:16;5.85;;;5.35;;
11823;SDS011;5969;50.780;7.726;2023-06-24T00:07:43;7.95;;;6.13;;
11823;SDS011;5969;50.780;7.726;2023-06-24T00:10:18;6.55;;;5.93;;
11823;SDS011;5969;50.780;7.726;2023-06-24T00:12:45;8.38;;;6.35;;
11823;SDS011;5969;50.780;7.726;2023-06-24T00:15:12;7.38;;;6.57;;
11823;SDS011;5969;50.780;7.726;2023-06-24T00:17:38;8.40;;;6.15;;
11823;SDS011;5969;50.780;7.726;2023-06-24T00:20:08;6.78;;;6.13;;
11823;SDS011;5969;50.780;7.726;2023-06-24T00:22:36;7.45;;;5.35;;
11823;SDS011;5969;50.780;7.726;2023-06-24T00:25:04;6.57;;;5.43;;
11823;SDS011;5969;50.780;7.726;2023-06-24T00:27:31;7.90;;;5.72;;
11823;SDS011;5969;50.780;7.726;2023-06-24T00:29:58;6.90;;;5.72;;
11823;SDS011;5969;50.780;7.726;2023-06-24T00:32:25;6.82;;;6.22;;
11823;SDS011;5969;50.780;7.726;2023-06-24T00:34:51;6.43;;;5.68;;
11823;SDS011;5969;50.780;7.726;2023-06-24T00:37:19;9.82;;;5.90;;
11823;SDS011;5969;50.780;7.726;2023-06-24T00:39:46;7.78;;;6.35;;
11823;SDS011;5969;50.780;7.726;2023-06-24T00:42:13;9.60;;;7.28;;
11823;SDS011;5969;50.780;7.726;2023-06-24T00:44:40;7.22;;;6.63;;
11823;SDS011;5969;50.780;7.726;2023-06-24T00:47:07;7.88;;;7.10;;
11823;SDS011;5969;50.780;7.726;2023-06-24T00:49:35;7.40;;;6.80;;
11823;SDS011;5969;50.780;7.726;2023-06-24T00:52:02;8.43;;;6.90;;
11823;SDS011;5969;50.780;7.726;2023-06-24T00:54:31;5.97;;;5.38;;
11823;SDS011;5969;50.780;7.726;2023-06-24T00:56:57;6.10;;;5.60;;
11823;SDS011;5969;50.780;7.726;2023-06-24T00:59:26;6.38;;;5.43;;
11823;SDS011;5969;50.780;7.726;2023-06-24T01:04:41;7.30;;;6.25;;
11823;SDS011;5969;50.780;7.726;2023-06-24T01:07:08;6.82;;;6.22;;
11823;SDS011;5969;50.780;7.726;2023-06-24T01:09:37;7.18;;;6.50;;
11823;SDS011;5969;50.780;7.726;2023-06-24T01:12:04;7.10;;;6.50;;
11823;SDS011;5969;50.780;7.726;2023-06-24T01:14:31;8.25;;;7.43;;
11823;SDS011;5969;50.780;7.726;2023-06-24T01:17:01;7.75;;;6.95;;
11823;SDS011;5969;50.780;7.726;2023-06-24T01:19:44;7.03;;;6.38;;
11823;SDS011;5969;50.780;7.726;2023-06-24T01:22:31;5.97;;;5.47;;
11823;SDS011;5969;50.780;7.726;2023-06-24T01:25:20;6.43;;;5.15;;
11823;SDS011;5969;50.780;7.726;2023-06-24T01:28:05;8.10;;;5.88;;
11823;SDS011;5969;50.780;7.726;2023-06-24T01:30:48;7.82;;;5.93;;
11823;SDS011;5969;50.780;7.726;2023-06-24T01:33:36;6.38;;;5.78;;
11823;SDS011;5969;50.780;7.726;2023-06-24T01:36:08;6.82;;;6.00;;
11823;SDS011;5969;50.780;7.726;2023-06-24T01:38:40;6.35;;;5.60;;
11823;SDS011;5969;50.780;7.726;2023-06-24T01:41:13;6.65;;;5.97;;
11823;SDS011;5969;50.780;7.726;2023-06-24T01:43:44;7.50;;;5.80;;
11823;SDS011;5969;50.780;7.726;2023-06-24T01:46:12;10.85;;;6.53;;
11823;SDS011;5969;50.780;7.726;2023-06-24T01:48:43;9.07;;;6.55;;
11823;SDS011;5969;50.780;7.726;2023-06-24T01:51:12;6.85;;;6.18;;
11823;SDS011;5969;50.780;7.726;2023-06-24T01:53:44;7.65;;;6.03;;
11823;SDS011;5969;50.780;7.726;2023-06-24T01:56:20;6.78;;;6.18;;
11823;SDS011;5969;50.780;7.726;2023-06-24T01:58:50;8.73;;;6.72;;
11823;SDS011;5969;50.780;7.726;2023-06-24T02:01:19;7.47;;;6.78;;
11823;SDS011;5969;50.780;7.726;2023-06-24T02:03:49;7.35;;;6.60;;
11823;SDS011;5969;50.780;7.726;2023-06-24T02:06:19;7.57;;;6.30;;
11823;SDS011;5969;50.780;7.726;2023-06-24T02:08:48;7.90;;;6.90;;
11823;SDS011;5969;50.780;7.726;2023-06-24T02:11:17;8.73;;;7.10;;
11823;SDS011;5969;50.780;7.726;2023-06-24T02:13:45;8.18;;;6.80;;
11823;SDS011;5969;50.780;7.726;2023-06-24T02:16:12;6.68;;;6.07;;
11823;SDS011;5969;50.780;7.726;2023-06-24T02:18:49;6.85;;;6.15;;
11823;SDS011;5969;50.780;7.726;2023-06-24T02:21:17;7.50;;;6.10;;
11823;SDS011;5969;50.780;7.726;2023-06-24T02:23:45;8.98;;;6.05;;
11823;SDS011;5969;50.780;7.726;2023-06-24T02:26:13;8.02;;;7.22;;
11823;SDS011;5969;50.780;7.726;2023-06-24T02:28:41;9.13;;;6.65;;
11823;SDS011;5969;50.780;7.726;2023-06-24T02:31:10;11.70;;;7.05;;
11823;SDS011;5969;50.780;7.726;2023-06-24T02:33:38;8.27;;;7.47;;
11823;SDS011;5969;50.780;7.726;2023-06-24T02:36:07;9.55;;;7.40;;
11823;SDS011;5969;50.780;7.726;2023-06-24T02:38:34;8.70;;;6.97;;
11823;SDS011;5969;50.780;7.726;2023-06-24T02:41:01;9.07;;;6.88;;
11823;SDS011;5969;50.780;7.726;2023-06-24T02:43:29;8.00;;;7.35;;
11823;SDS011;5969;50.780;7.726;2023-06-24T02:45:56;7.40;;;6.70;;
11823;SDS011;5969;50.780;7.726;2023-06-24T02:48:27;6.68;;;6.07;;
11823;SDS011;5969;50.780;7.726;2023-06-24T02:50:55;6.82;;;5.85;;
11823;SDS011;5969;50.780;7.726;2023-06-24T02:53:25;6.93;;;6.22;;
11823;SDS011;5969;50.780;7.726;2023-06-24T02:55:52;5.88;;;5.28;;
11823;SDS011;5969;50.780;7.726;2023-06-24T02:58:24;6.10;;;5.60;;
11823;SDS011;5969;50.780;7.726;2023-06-24T03:00:56;6.47;;;5.65;;
11823;SDS011;5969;50.780;7.726;2023-06-24T03:03:25;6.53;;;5.30;;
11823;SDS011;5969;50.780;7.726;2023-06-24T03:05:53;12.25;;;6.55;;
11823;SDS011;5969;50.780;7.726;2023-06-24T03:08:21;6.10;;;5.60;;
11823;SDS011;5969;50.780;7.726;2023-06-24T03:10:50;5.53;;;5.07;;
11823;SDS011;5969;50.780;7.726;2023-06-24T03:13:16;8.50;;;5.82;;
11823;SDS011;5969;50.780;7.726;2023-06-24T03:15:43;7.47;;;5.60;;
11823;SDS011;5969;50.780;7.726;2023-06-24T03:18:10;9.50;;;5.53;;
11823;SDS011;5969;50.780;7.726;2023-06-24T03:20:37;6.35;;;5.72;;
11823;SDS011;5969;50.780;7.726;2023-06-24T03:23:04;7.07;;;6.45;;
11823;SDS011;5969;50.780;7.726;2023-06-24T03:25:31;10.40;;;6.70;;
11823;SDS011;5969;50.780;7.726;2023-06-24T03:27:59;7.93;;;6.80;;
11823;SDS011;5969;50.780;7.726;2023-06-24T03:30:28;7.70;;;6.97;;
11823;SDS011;5969;50.780;7.726;2023-06-24T03:32:56;9.85;;;7.03;;
11823;SDS011;5969;50.780;7.726;2023-06-24T03:35:23;7.13;;;6.43;;
11823;SDS011;5969;50.780;7.726;2023-06-24T03:37:50;7.25;;;6.65;;
11823;SDS011;5969;50.780;7.726;2023-06-24T03:40:17;6.80;;;6.20;;
11823;SDS011;5969;50.780;7.726;2023-06-24T03:42:43;6.53;;;5.88;;
11823;SDS011;5969;50.780;7.726;2023-06-24T03:45:12;7.70;;;6.68;;
11823;SDS011;5969;50.780;7.726;2023-06-24T03:47:38;12.48;;;7.43;;
11823;SDS011;5969;50.780;7.726;2023-06-24T03:50:06;7.65;;;6.75;;
11823;SDS011;5969;50.780;7.726;2023-06-24T03:52:33;7.95;;;7.25;;
11823;SDS011;5969;50.780;7.726;2023-06-24T03:55:01;7.85;;;7.25;;
11823;SDS011;5969;50.780;7.726;2023-06-24T03:57:30;7.75;;;6.85;;
11823;SDS011;5969;50.780;7.726;2023-06-24T03:59:57;9.02;;;7.03;;
11823;SDS011;5969;50.780;7.726;2023-06-24T04:02:25;8.70;;;7.28;;
11823;SDS011;5969;50.780;7.726;2023-06-24T04:04:54;8.82;;;6.35;;
11823;SDS011;5969;50.780;7.726;2023-06-24T04:07:21;7.03;;;6.32;;
11823;SDS011;5969;50.780;7.726;2023-06-24T04:09:54;7.93;;;7.15;;
11823;SDS011;5969;50.780;7.726;2023-06-24T04:12:21;8.27;;;6.80;;
11823;SDS011;5969;50.780;7.726;2023-06-24T04:14:48;6.90;;;6.15;;
11823;SDS011;5969;50.780;7.726;2023-06-24T04:17:15;9.05;;;6.25;;
11823;SDS011;5969;50.780;7.726;2023-06-24T04:19:43;7.78;;;6.65;;
11823;SDS011;5969;50.780;7.726;2023-06-24T04:22:10;7.80;;;6.93;;
11823;SDS011;5969;50.780;7.726;2023-06-24T04:24:38;7.53;;;6.90;;
11823;SDS011;5969;50.780;7.726;2023-06-24T04:27:06;6.93;;;6.22;;
11823;SDS011;5969;50.780;7.726;2023-06-24T04:29:33;7.07;;;6.43;;
11823;SDS011;5969;50.780;7.726;2023-06-24T04:32:00;6.75;;;6.05;;
11823;SDS011;5969;50.780;7.726;2023-06-24T04:34:30;6.53;;;5.82;;
11823;SDS011;5969;50.780;7.726;2023-06-24T04:36:58;6.72;;;6.05;;
11823;SDS011;5969;50.780;7.726;2023-06-24T04:39:25;6.88;;;6.25;;
11823;SDS011;5969;50.780;7.726;2023-06-24T04:41:52;6.95;;;6.25;;
11823;SDS011;5969;50.780;7.726;2023-06-24T04:44:19;9.40;;;6.57;;
11823;SDS011;5969;50.780;7.726;2023-06-24T04:46:45;7.07;;;6.03;;
11823;SDS011;5969;50.780;7.726;2023-06-24T04:49:12;7.20;;;5.97;;
11823;SDS011;5969;50.780;7.726;2023-06-24T04:51:39;6.68;;;6.07;;
11823;SDS011;5969;50.780;7.726;2023-06-24T04:54:09;8.50;;;6.32;;
11823;SDS011;5969;50.780;7.726;2023-06-24T04:56:37;7.20;;;6.50;;
11823;SDS011;5969;50.780;7.726;2023-06-24T04:59:04;9.30;;;6.65;;
11823;SDS011;5969;50.780;7.726;2023-06-24T05:01:30;6.50;;;5.90;;
11823;SDS011;5969;50.780;7.726;2023-06-24T05:03:57;7.72;;;5.80;;
11823;SDS011;5969;50.780;7.726;2023-06-24T05:06:24;9.18;;;6.10;;
11823;SDS011;5969;50.780;7.726;2023-06-24T05:08:51;6.10;;;5.55;;
11823;SDS011;5969;50.780;7.726;2023-06-24T05:11:19;6.57;;;5.90;;
11823;SDS011;5969;50.780;7.726;2023-06-24T05:13:49;6.35;;;5.75;;
11823;SDS011;5969;50.780;7.726;2023-06-24T05:16:27;9.93;;;6.00;;
11823;SDS011;5969;50.780;7.726;2023-06-24T05:19:14;6.55;;;5.43;;
11823;SDS011;5969;50.780;7.726;2023-06-24T05:25:19;8.63;;;5.25;;
11823;SDS011;5969;50.780;7.726;2023-06-24T05:38:28;6.30;;;5.10;;
11823;SDS011;5969;50.780;7.726;2023-06-24T05:40:55;5.50;;;4.95;;
11823;SDS011;5969;50.780;7.726;2023-06-24T05:43:22;6.82;;;5.95;;
11823;SDS011;5969;50.780;7.726;2023-06-24T05:45:48;5.80;;;5.30;;
11823;SDS011;5969;50.780;7.726;2023-06-24T05:48:18;5.80;;;5.30;;
11823;SDS011;5969;50.780;7.726;2023-06-24T05:50:46;8.25;;;5.38;;
11823;SDS011;5969;50.780;7.726;2023-06-24T05:53:13;7.20;;;5.70;;
11823;SDS011;5969;50.780;7.726;2023-06-24T05:55:40;5.70;;;5.15;;
11823;SDS011;5969;50.780;7.726;2023-06-24T05:58:07;6.25;;;5.65;;
11823;SDS011;5969;50.780;7.726;2023-06-24T06:00:33;6.03;;;5.53;;
11823;SDS011;5969;50.780;7.726;2023-06-24T06:03:00;5.90;;;5.30;;
11823;SDS011;5969;50.780;7.726;2023-06-24T06:09:14;6.18;;;5.43;;
11823;SDS011;5969;50.780;7.726;2023-06-24T06:11:43;8.90;;;5.32;;
11823;SDS011;5969;50.780;7.726;2023-06-24T06:14:15;6.13;;;5.53;;
11823;SDS011;5969;50.780;7.726;2023-06-24T06:16:42;5.90;;;5.30;;
11823;SDS011;5969;50.780;7.726;2023-06-24T06:19:09;6.50;;;5.70;;
11823;SDS011;5969;50.780;7.726;2023-06-24T06:21:51;7.30;;;5.90;;
11823;SDS011;5969;50.780;7.726;2023-06-24T06:24:21;6.60;;;5.13;;
11823;SDS011;5969;50.780;7.726;2023-06-24T06:27:08;6.75;;;6.03;;
11823;SDS011;5969;50.780;7.726;2023-06-24T06:29:45;6.30;;;5.68;;
11823;SDS011;5969;50.780;7.726;2023-06-24T06:32:27;5.60;;;4.93;;
11823;SDS011;5969;50.780;7.726;2023-06-24T06:35:05;5.97;;;5.03;;
11823;SDS011;5969;50.780;7.726;2023-06-24T06:37:46;7.32;;;5.32;;
11823;SDS011;5969;50.780;7.726;2023-06-24T07:04:34;5.38;;;4.88;;
11823;SDS011;5969;50.780;7.726;2023-06-24T07:07:00;5.22;;;4.82;;
11823;SDS011;5969;50.780;7.726;2023-06-24T07:09:27;5.28;;;4.85;;
11823;SDS011;5969;50.780;7.726;2023-06-24T07:11:54;5.53;;;4.43;;
11823;SDS011;5969;50.780;7.726;2023-06-24T07:14:21;5.50;;;5.03;;
11823;SDS011;5969;50.780;7.726;2023-06-24T07:16:47;5.05;;;4.65;;
11823;SDS011;5969;50.780;7.726;2023-06-24T07:19:14;5.25;;;4.75;;
11823;SDS011;5969;50.780;7.726;2023-06-24T07:21:42;7.45;;;4.88;;
11823;SDS011;5969;50.780;7.726;2023-06-24T07:24:09;7.95;;;4.75;;
11823;SDS011;5969;50.780;7.726;2023-06-24T07:26:37;6.10;;;4.53;;
11823;SDS011;5969;50.780;7.726;2023-06-24T07:29:05;5.32;;;4.43;;
11823;SDS011;5969;50.780;7.726;2023-06-24T07:31:33;4.72;;;4.32;;
11823;SDS011;5969;50.780;7.726;2023-06-24T07:34:00;6.65;;;4.70;;
11823;SDS011;5969;50.780;7.726;2023-06-24T07:36:26;4.82;;;4.28;;
11823;SDS011;5969;50.780;7.726;2023-06-24T07:38:54;5.40;;;4.00;;
11823;SDS011;5969;50.780;7.726;2023-06-24T07:41:21;5.45;;;4.47;;
11823;SDS011;5969;50.780;7.726;2023-06-24T07:43:48;5.13;;;4.35;;
11823;SDS011;5969;50.780;7.726;2023-06-24T07:46:15;6.05;;;4.53;;
11823;SDS011;5969;50.780;7.726;2023-06-24T07:48:42;4.70;;;4.30;;
11823;SDS011;5969;50.780;7.726;2023-06-24T07:51:09;6.97;;;4.65;;
11823;SDS011;5969;50.780;7.726;2023-06-24T07:53:35;4.97;;;4.57;;
11823;SDS011;5969;50.780;7.726;2023-06-24T07:56:04;6.68;;;4.90;;
11823;SDS011;5969;50.780;7.726;2023-06-24T07:58:30;5.10;;;4.53;;
11823;SDS011;5969;50.780;7.726;2023-06-24T08:00:57;5.35;;;4.38;;
11823;SDS011;5969;50.780;7.726;2023-06-24T08:03:25;7.50;;;4.30;;
11823;SDS011;5969;50.780;7.726;2023-06-24T08:05:51;5.00;;;4.60;;
11823;SDS011;5969;50.780;7.726;2023-06-24T08:08:18;5.75;;;4.60;;
11823;SDS011;5969;50.780;7.726;2023-06-24T08:10:45;5.88;;;5.13;;
11823;SDS011;5969;50.780;7.726;2023-06-24T08:13:13;4.60;;;4.25;;
11823;SDS011;5969;50.780;7.726;2023-06-24T08:15:40;7.13;;;4.93;;
11823;SDS011;5969;50.780;7.726;2023-06-24T08:18:07;4.65;;;4.22;;
11823;SDS011;5969;50.780;7.726;2023-06-24T08:20:34;7.25;;;5.18;;
11823;SDS011;5969;50.780;7.726;2023-06-24T08:23:01;5.63;;;5.13;;
11823;SDS011;5969;50.780;7.726;2023-06-24T08:25:28;8.45;;;4.72;;
11823;SDS011;5969;50.780;7.726;2023-06-24T08:27:55;5.00;;;4.50;;
11823;SDS011;5969;50.780;7.726;2023-06-24T08:30:24;6.25;;;5.20;;
11823;SDS011;5969;50.780;7.726;2023-06-24T08:32:51;5.28;;;4.75;;
11823;SDS011;5969;50.780;7.726;2023-06-24T08:35:18;6.43;;;4.85;;
11823;SDS011;5969;50.780;7.726;2023-06-24T08:37:44;5.07;;;4.68;;
11823;SDS011;5969;50.780;7.726;2023-06-24T08:40:11;5.82;;;5.20;;
11823;SDS011;5969;50.780;7.726;2023-06-24T08:42:38;5.63;;;5.13;;
11823;SDS011;5969;50.780;7.726;2023-06-24T08:45:05;5.97;;;5.30;;
11823;SDS011;5969;50.780;7.726;2023-06-24T08:47:34;7.07;;;5.20;;
11823;SDS011;5969;50.780;7.726;2023-06-24T08:50:02;6.22;;;5.63;;
11823;SDS011;5969;50.780;7.726;2023-06-24T08:52:31;7.65;;;5.35;;
11823;SDS011;5969;50.780;7.726;2023-06-24T08:55:01;7.60;;;6.38;;
11823;SDS011;5969;50.780;7.726;2023-06-24T08:57:32;7.10;;;5.50;;
11823;SDS011;5969;50.780;7.726;2023-06-24T08:59:59;5.82;;;5.22;;
11823;SDS011;5969;50.780;7.726;2023-06-24T09:02:25;6.25;;;5.65;;
11823;SDS011;5969;50.780;7.726;2023-06-24T09:04:54;5.40;;;4.97;;
11823;SDS011;5969;50.780;7.726;2023-06-24T09:07:27;5.78;;;5.28;;
11823;SDS011;5969;50.780;7.726;2023-06-24T09:09:54;5.63;;;5.22;;
11823;SDS011;5969;50.780;7.726;2023-06-24T09:12:23;5.90;;;5.05;;
11823;SDS011;5969;50.780;7.726;2023-06-24T09:14:50;5.95;;;5.43;;
11823;SDS011;5969;50.780;7.726;2023-06-24T09:17:18;4.88;;;4.47;;
11823;SDS011;5969;50.780;7.726;2023-06-24T09:19:47;6.82;;;6.15;;
11823;SDS011;5969;50.780;7.726;2023-06-24T09:22:15;7.28;;;6.53;;
11823;SDS011;5969;50.780;7.726;2023-06-24T09:24:43;6.90;;;6.20;;
11823;SDS011;5969;50.780;7.726;2023-06-24T09:27:12;5.22;;;4.72;;
11823;SDS011;5969;50.780;7.726;2023-06-24T09:29:39;6.13;;;5.63;;
11823;SDS011;5969;50.780;7.726;2023-06-24T09:32:07;5.60;;;5.10;;
11823;SDS011;5969;50.780;7.726;2023-06-24T09:34:34;7.18;;;5.30;;
11823;SDS011;5969;50.780;7.726;2023-06-24T09:37:01;7.40;;;5.50;;
11823;SDS011;5969;50.780;7.726;2023-06-24T09:39:35;6.05;;;5.43;;
11823;SDS011;5969;50.780;7.726;2023-06-24T09:42:03;5.32;;;4.93;;
11823;SDS011;5969;50.780;7.726;2023-06-24T09:44:32;6.40;;;5.80;;
11823;SDS011;5969;50.780;7.726;2023-06-24T09:46:59;5.65;;;4.80;;
11823;SDS011;5969;50.780;7.726;2023-06-24T09:49:25;7.00;;;5.88;;
11823;SDS011;5969;50.780;7.726;2023-06-24T09:51:55;6.78;;;6.07;;
11823;SDS011;5969;50.780;7.726;2023-06-24T09:54:22;29.45;;;7.88;;
11823;SDS011;5969;50.780;7.726;2023-06-24T09:56:53;12.05;;;5.47;;
11823;SDS011;5969;50.780;7.726;2023-06-24T09:59:20;6.35;;;5.75;;
11823;SDS011;5969;50.780;7.726;2023-06-24T10:01:49;8.18;;;5.57;;
11823;SDS011;5969;50.780;7.726;2023-06-24T10:04:19;6.22;;;5.13;;
11823;SDS011;5969;50.780;7.726;2023-06-24T10:06:48;7.38;;;5.20;;
11823;SDS011;5969;50.780;7.726;2023-06-24T10:09:15;6.10;;;5.57;;
11823;SDS011;5969;50.780;7.726;2023-06-24T10:11:44;6.82;;;5.75;;
11823;SDS011;5969;50.780;7.726;2023-06-24T10:14:13;6.82;;;5.45;;
11823;SDS011;5969;50.780;7.726;2023-06-24T10:16:40;11.32;;;5.60;;
11823;SDS011;5969;50.780;7.726;2023-06-24T10:19:07;6.35;;;5.43;;
11823;SDS011;5969;50.780;7.726;2023-06-24T10:21:46;6.18;;;5.38;;
11823;SDS011;5969;50.780;7.726;2023-06-24T10:24:27;8.77;;;4.93;;
11823;SDS011;5969;50.780;7.726;2023-06-24T10:26:55;5.40;;;4.90;;
11823;SDS011;5969;50.780;7.726;2023-06-24T10:29:34;5.20;;;4.70;;
11823;SDS011;5969;50.780;7.726;2023-06-24T10:32:05;5.70;;;5.10;;
11823;SDS011;5969;50.780;7.726;2023-06-24T10:34:42;5.78;;;4.95;;
11823;SDS011;5969;50.780;7.726;2023-06-24T10:37:10;8.25;;;5.22;;
11823;SDS011;5969;50.780;7.726;2023-06-24T10:39:48;6.97;;;5.82;;
11823;SDS011;5969;50.780;7.726;2023-06-24T10:42:26;5.82;;;5.22;;
11823;SDS011;5969;50.780;7.726;2023-06-24T10:45:01;5.85;;;5.18;;
11823;SDS011;5969;50.780;7.726;2023-06-24T10:47:40;6.45;;;5.20;;
11823;SDS011;5969;50.780;7.726;2023-06-24T10:50:08;7.55;;;5.28;;
11823;SDS011;5969;50.780;7.726;2023-06-24T10:52:37;5.88;;;5.18;;
11823;SDS011;5969;50.780;7.726;2023-06-24T10:55:04;5.88;;;5.07;;
11823;SDS011;5969;50.780;7.726;2023-06-24T10:57:32;4.57;;;4.18;;
11823;SDS011;5969;50.780;7.726;2023-06-24T11:00:01;5.10;;;4.43;;
11823;SDS011;5969;50.780;7.726;2023-06-24T11:02:29;4.60;;;4.20;;
11823;SDS011;5969;50.780;7.726;2023-06-24T11:04:57;4.93;;;4.43;;
11823;SDS011;5969;50.780;7.726;2023-06-24T11:07:25;6.05;;;4.80;;
11823;SDS011;5969;50.780;7.726;2023-06-24T11:09:54;5.85;;;4.70;;
11823;SDS011;5969;50.780;7.726;2023-06-24T11:12:23;4.97;;;4.57;;
11823;SDS011;5969;50.780;7.726;2023-06-24T11:14:51;6.22;;;4.22;;
11823;SDS011;5969;50.780;7.726;2023-06-24T11:17:22;5.30;;;4.50;;
11823;SDS011;5969;50.780;7.726;2023-06-24T11:19:49;5.40;;;4.57;;
11823;SDS011;5969;50.780;7.726;2023-06-24T11:22:16;6.63;;;4.32;;
11823;SDS011;5969;50.780;7.726;2023-06-24T11:24:42;4.72;;;4.00;;
11823;SDS011;5969;50.780;7.726;2023-06-24T11:27:09;4.97;;;4.57;;
11823;SDS011;5969;50.780;7.726;2023-06-24T11:29:36;5.50;;;4.65;;
11823;SDS011;5969;50.780;7.726;2023-06-24T11:32:07;5.38;;;4.18;;
11823;SDS011;5969;50.780;7.726;2023-06-24T11:34:36;5.95;;;4.22;;
11823;SDS011;5969;50.780;7.726;2023-06-24T11:37:11;5.03;;;4.03;;
11823;SDS011;5969;50.780;7.726;2023-06-24T11:39:38;6.85;;;4.32;;
11823;SDS011;5969;50.780;7.726;2023-06-24T11:42:05;4.72;;;4.22;;
11823;SDS011;5969;50.780;7.726;2023-06-24T11:44:33;5.07;;;4.10;;
11823;SDS011;5969;50.780;7.726;2023-06-24T11:47:04;7.13;;;3.80;;
11823;SDS011;5969;50.780;7.726;2023-06-24T11:49:31;4.10;;;3.70;;
11823;SDS011;5969;50.780;7.726;2023-06-24T11:51:59;4.65;;;4.15;;
11823;SDS011;5969;50.780;7.726;2023-06-24T11:54:26;5.45;;;4.28;;
11823;SDS011;5969;50.780;7.726;2023-06-24T11:56:52;3.90;;;3.50;;
11823;SDS011;5969;50.780;7.726;2023-06-24T11:59:20;4.30;;;3.90;;
11823;SDS011;5969;50.780;7.726;2023-06-24T12:01:54;5.20;;;4.07;;
11823;SDS011;5969;50.780;7.726;2023-06-24T12:04:27;4.28;;;3.60;;
11823;SDS011;5969;50.780;7.726;2023-06-24T12:06:54;4.85;;;3.67;;
11823;SDS011;5969;50.780;7.726;2023-06-24T12:09:22;3.72;;;3.35;;
11823;SDS011;5969;50.780;7.726;2023-06-24T12:11:49;4.32;;;3.33;;
11823;SDS011;5969;50.780;7.726;2023-06-24T12:14:18;12.63;;;3.90;;
11823;SDS011;5969;50.780;7.726;2023-06-24T12:16:45;6.93;;;3.95;;
11823;SDS011;5969;50.780;7.726;2023-06-24T12:19:11;5.20;;;3.67;;
11823;SDS011;5969;50.780;7.726;2023-06-24T12:21:38;3.53;;;3.15;;
11823;SDS011;5969;50.780;7.726;2023-06-24T12:24:05;6.47;;;4.07;;
11823;SDS011;5969;50.780;7.726;2023-06-24T12:26:33;4.03;;;3.30;;
11823;SDS011;5969;50.780;7.726;2023-06-24T12:29:01;4.82;;;4.05;;
11823;SDS011;5969;50.780;7.726;2023-06-24T12:31:28;3.90;;;3.60;;
11823;SDS011;5969;50.780;7.726;2023-06-24T12:33:55;5.47;;;3.70;;
11823;SDS011;5969;50.780;7.726;2023-06-24T12:36:22;5.75;;;3.70;;
11823;SDS011;5969;50.780;7.726;2023-06-24T12:38:49;13.93;;;4.18;;
11823;SDS011;5969;50.780;7.726;2023-06-24T12:41:15;4.20;;;3.78;;
11823;SDS011;5969;50.780;7.726;2023-06-24T12:43:44;4.72;;;3.50;;
11823;SDS011;5969;50.780;7.726;2023-06-24T12:46:11;12.48;;;3.95;;
11823;SDS011;5969;50.780;7.726;2023-06-24T12:48:38;5.38;;;3.15;;
11823;SDS011;5969;50.780;7.726;2023-06-24T12:51:05;4.50;;;3.30;;
11823;SDS011;5969;50.780;7.726;2023-06-24T12:53:31;4.53;;;3.42;;
11823;SDS011;5969;50.780;7.726;2023-06-24T12:55:58;5.20;;;3.58;;
11823;SDS011;5969;50.780;7.726;2023-06-24T12:58:25;4.55;;;3.45;;
11823;SDS011;5969;50.780;7.726;2023-06-24T13:00:53;4.35;;;3.10;;
11823;SDS011;5969;50.780;7.726;2023-06-24T13:03:20;4.53;;;3.40;;
11823;SDS011;5969;50.780;7.726;2023-06-24T13:05:47;4.18;;;3.58;;
11823;SDS011;5969;50.780;7.726;2023-06-24T13:08:13;4.35;;;3.53;;
11823;SDS011;5969;50.780;7.726;2023-06-24T13:10:47;4.45;;;3.35;;
11823;SDS011;5969;50.780;7.726;2023-06-24T13:13:14;4.65;;;3.45;;
11823;SDS011;5969;50.780;7.726;2023-06-24T13:15:41;4.70;;;3.75;;
11823;SDS011;5969;50.780;7.726;2023-06-24T13:18:09;4.55;;;3.38;;
11823;SDS011;5969;50.780;7.726;2023-06-24T13:20:35;5.28;;;3.65;;
11823;SDS011;5969;50.780;7.726;2023-06-24T13:23:02;3.20;;;2.90;;
11823;SDS011;5969;50.780;7.726;2023-06-24T13:25:29;3.20;;;2.88;;
11823;SDS011;5969;50.780;7.726;2023-06-24T13:27:56;4.07;;;3.45;;
11823;SDS011;5969;50.780;7.726;2023-06-24T13:30:23;3.83;;;3.10;;
11823;SDS011;5969;50.780;7.726;2023-06-24T13:32:55;3.70;;;3.40;;
11823;SDS011;5969;50.780;7.726;2023-06-24T13:35:29;4.38;;;3.17;;
11823;SDS011;5969;50.780;7.726;2023-06-24T13:37:55;3.97;;;3.28;;
11823;SDS011;5969;50.780;7.726;2023-06-24T13:40:23;3.63;;;3.33;;
11823;SDS011;5969;50.780;7.726;2023-06-24T13:42:50;4.93;;;3.10;;
11823;SDS011;5969;50.780;7.726;2023-06-24T13:45:17;4.03;;;3.40;;
11823;SDS011;5969;50.780;7.726;2023-06-24T13:47:44;6.43;;;3.70;;
11823;SDS011;5969;50.780;7.726;2023-06-24T13:50:11;4.00;;;3.25;;
11823;SDS011;5969;50.780;7.726;2023-06-24T13:52:39;8.95;;;3.50;;
11823;SDS011;5969;50.780;7.726;2023-06-24T13:55:07;4.07;;;3.10;;
11823;SDS011;5969;50.780;7.726;2023-06-24T13:57:34;4.22;;;3.83;;
11823;SDS011;5969;50.780;7.726;2023-06-24T14:00:01;3.63;;;3.28;;
11823;SDS011;5969;50.780;7.726;2023-06-24T14:02:28;3.88;;;3.35;;
11823;SDS011;5969;50.780;7.726;2023-06-24T14:04:54;3.60;;;3.30;;
11823;SDS011;5969;50.780;7.726;2023-06-24T14:07:21;18.52;;;3.25;;
11823;SDS011;5969;50.780;7.726;2023-06-24T14:09:50;4.75;;;3.70;;
11823;SDS011;5969;50.780;7.726;2023-06-24T14:12:17;3.35;;;2.88;;
11823;SDS011;5969;50.780;7.726;2023-06-24T14:14:44;5.70;;;3.25;;
11823;SDS011;5969;50.780;7.726;2023-06-24T14:17:11;3.78;;;3.33;;
11823;SDS011;5969;50.780;7.726;2023-06-24T14:19:37;3.83;;;3.10;;
11823;SDS011;5969;50.780;7.726;2023-06-24T14:22:05;3.70;;;3.40;;
11823;SDS011;5969;50.780;7.726;2023-06-24T14:24:32;3.30;;;3.00;;
11823;SDS011;5969;50.780;7.726;2023-06-24T14:27:00;3.60;;;3.30;;
11823;SDS011;5969;50.780;7.726;2023-06-24T14:29:27;3.60;;;3.20;;
11823;SDS011;5969;50.780;7.726;2023-06-24T14:31:54;4.57;;;3.65;;
11823;SDS011;5969;50.780;7.726;2023-06-24T14:34:22;4.70;;;3.72;;
11823;SDS011;5969;50.780;7.726;2023-06-24T14:36:49;5.32;;;3.78;;
11823;SDS011;5969;50.780;7.726;2023-06-24T14:39:16;4.65;;;3.10;;
11823;SDS011;5969;50.780;7.726;2023-06-24T14:41:43;2.97;;;2.78;;
11823;SDS011;5969;50.780;7.726;2023-06-24T14:44:11;3.58;;;3.28;;
11823;SDS011;5969;50.780;7.726;2023-06-24T14:46:38;4.28;;;3.28;;
11823;SDS011;5969;50.780;7.726;2023-06-24T14:49:05;3.35;;;3.08;;
11823;SDS011;5969;50.780;7.726;2023-06-24T14:51:32;3.03;;;2.83;;
11823;SDS011;5969;50.780;7.726;2023-06-24T14:53:59;3.92;;;3.33;;
11823;SDS011;5969;50.780;7.726;2023-06-24T14:56:26;3.55;;;3.25;;
11823;SDS011;5969;50.780;7.726;2023-06-24T14:58:53;3.58;;;3.17;;
11823;SDS011;5969;50.780;7.726;2023-06-24T15:01:21;3.60;;;3.30;;
11823;SDS011;5969;50.780;7.726;2023-06-24T15:03:47;6.25;;;3.22;;
11823;SDS011;5969;50.780;7.726;2023-06-24T15:06:14;3.97;;;3.33;;
11823;SDS011;5969;50.780;7.726;2023-06-24T15:08:41;3.38;;;3.08;;
11823;SDS011;5969;50.780;7.726;2023-06-24T15:11:09;3.55;;;3.25;;
11823;SDS011;5969;50.780;7.726;2023-06-24T15:13:36;3.33;;;3.13;;
11823;SDS011;5969;50.780;7.726;2023-06-24T15:16:02;3.60;;;3.30;;
11823;SDS011;5969;50.780;7.726;2023-06-24T15:18:31;3.97;;;3.67;;
11823;SDS011;5969;50.780;7.726;2023-06-24T15:20:58;3.50;;;3.20;;
11823;SDS011;5969;50.780;7.726;2023-06-24T15:23:25;3.70;;;3.40;;
11823;SDS011;5969;50.780;7.726;2023-06-24T15:25:52;5.80;;;3.60;;
11823;SDS011;5969;50.780;7.726;2023-06-24T15:28:19;3.80;;;3.40;;
11823;SDS011;5969;50.780;7.726;2023-06-24T15:30:45;4.32;;;3.88;;
11823;SDS011;5969;50.780;7.726;2023-06-24T15:33:13;5.63;;;3.65;;
11823;SDS011;5969;50.780;7.726;2023-06-24T15:35:41;5.60;;;3.70;;
11823;SDS011;5969;50.780;7.726;2023-06-24T15:38:08;4.13;;;3.53;;
11823;SDS011;5969;50.780;7.726;2023-06-24T15:40:35;4.55;;;3.55;;
11823;SDS011;5969;50.780;7.726;2023-06-24T15:43:05;4.55;;;3.90;;
11823;SDS011;5969;50.780;7.726;2023-06-24T15:45:32;3.88;;;3.47;;
11823;SDS011;5969;50.780;7.726;2023-06-24T15:48:02;3.80;;;3.40;;
11823;SDS011;5969;50.780;7.726;2023-06-24T15:50:28;4.25;;;3.72;;
11823;SDS011;5969;50.780;7.726;2023-06-24T15:52:57;4.03;;;3.45;;